Vendinga, Russia
Current Conditions -  °F | °C
As of 2:30 AM on Thursday 23 Oct 2014 (Local Time) from UUYY Reporting Station
Snow Showers Snow Showers  
Wind Chill: -18°   Ceiling: 1300
Heat Index: -9°   Visibility: 0.75mi
Dew Point: -11°   Wind: 18mph
Humidity: 86%   Direction: 20°NNE
Pressure: 29.8"   Gusts: 27mph
Location:  63.45°N, 48°E
Report Text: UUYY 222330Z 02008G12MPS 1200 R01/P1500D SHSN SCT008 BKN013CBOVC066 M09/M11 Q1009 TEMPO 0500 +SHSN 0149//41 RMK QFE748/0997
Loading
Personal Weather Stations






























Interactive Weather Map
Tropical Storm Tracking
New forecast layout! Learn more

10-Day Weather Forecast

Advertisements
Track Severe Weather on mobile